sensor_id;sensor_type;location;lat;lon;timestamp;temperature;humidity
54796;DHT22;40693;43.884;20.340;2022-12-07T00:01:27;281.60;2278.40
54796;DHT22;40693;43.884;20.340;2022-12-07T00:03:54;281.60;2278.40
54796;DHT22;40693;43.884;20.340;2022-12-07T00:06:22;281.60;2278.40
54796;DHT22;40693;43.884;20.340;2022-12-07T00:08:48;256.90;2252.80
54796;DHT22;40693;43.884;20.340;2022-12-07T00:11:15;256.90;2252.80
54796;DHT22;40693;43.884;20.340;2022-12-07T00:13:41;256.90;2252.80
54796;DHT22;40693;43.884;20.340;2022-12-07T00:16:08;256.90;2252.80
54796;DHT22;40693;43.884;20.340;2022-12-07T00:18:34;256.90;2252.80
54796;DHT22;40693;43.884;20.340;2022-12-07T00:21:00;256.90;2252.80
54796;DHT22;40693;43.884;20.340;2022-12-07T00:23:26;256.90;2252.80
54796;DHT22;40693;43.884;20.340;2022-12-07T00:25:52;281.60;2278.40
54796;DHT22;40693;43.884;20.340;2022-12-07T00:28:17;256.90;2252.80
54796;DHT22;40693;43.884;20.340;2022-12-07T00:30:43;256.90;2252.80
54796;DHT22;40693;43.884;20.340;2022-12-07T00:33:09;256.90;2252.80
54796;DHT22;40693;43.884;20.340;2022-12-07T00:35:34;256.90;2252.80
54796;DHT22;40693;43.884;20.340;2022-12-07T00:38:00;256.90;2252.80
54796;DHT22;40693;43.884;20.340;2022-12-07T00:40:25;256.90;2252.80
54796;DHT22;40693;43.884;20.340;2022-12-07T00:42:51;256.90;2252.80
54796;DHT22;40693;43.884;20.340;2022-12-07T00:45:16;281.60;2278.40
54796;DHT22;40693;43.884;20.340;2022-12-07T00:47:42;281.60;2278.40
54796;DHT22;40693;43.884;20.340;2022-12-07T00:50:08;281.60;2278.40
54796;DHT22;40693;43.884;20.340;2022-12-07T00:52:34;281.60;2278.40
54796;DHT22;40693;43.884;20.340;2022-12-07T00:54:59;281.60;2278.40
54796;DHT22;40693;43.884;20.340;2022-12-07T00:57:25;281.60;2278.40
54796;DHT22;40693;43.884;20.340;2022-12-07T00:59:50;256.90;2252.80
54796;DHT22;40693;43.884;20.340;2022-12-07T01:02:20;256.90;2252.80
54796;DHT22;40693;43.884;20.340;2022-12-07T01:04:46;256.90;2252.80
54796;DHT22;40693;43.884;20.340;2022-12-07T01:07:12;256.90;2252.80
54796;DHT22;40693;43.884;20.340;2022-12-07T01:09:37;256.90;2252.80
54796;DHT22;40693;43.884;20.340;2022-12-07T01:12:03;256.90;2252.80
54796;DHT22;40693;43.884;20.340;2022-12-07T01:14:29;256.80;2252.80
54796;DHT22;40693;43.884;20.340;2022-12-07T01:16:54;256.70;2252.80
54796;DHT22;40693;43.884;20.340;2022-12-07T01:19:20;256.70;2252.80
54796;DHT22;40693;43.884;20.340;2022-12-07T01:21:45;256.70;2252.80
54796;DHT22;40693;43.884;20.340;2022-12-07T01:24:11;256.70;2252.80
54796;DHT22;40693;43.884;20.340;2022-12-07T01:26:36;256.60;2252.80
54796;DHT22;40693;43.884;20.340;2022-12-07T01:29:02;256.50;2252.80
54796;DHT22;40693;43.884;20.340;2022-12-07T01:31:28;256.50;2252.80
54796;DHT22;40693;43.884;20.340;2022-12-07T01:33:55;256.50;2252.80
54796;DHT22;40693;43.884;20.340;2022-12-07T01:36:21;256.50;2252.80
54796;DHT22;40693;43.884;20.340;2022-12-07T01:38:49;256.60;2252.80
54796;DHT22;40693;43.884;20.340;2022-12-07T01:41:16;256.70;2252.80
54796;DHT22;40693;43.884;20.340;2022-12-07T01:46:27;256.70;2252.80
54796;DHT22;40693;43.884;20.340;2022-12-07T01:48:52;256.70;2252.80
54796;DHT22;40693;43.884;20.340;2022-12-07T01:51:18;256.70;2252.80
54796;DHT22;40693;43.884;20.340;2022-12-07T01:53:43;256.70;2252.80
54796;DHT22;40693;43.884;20.340;2022-12-07T01:56:11;256.70;2252.80
54796;DHT22;40693;43.884;20.340;2022-12-07T01:58:38;256.80;2252.80
54796;DHT22;40693;43.884;20.340;2022-12-07T02:01:04;256.80;2252.80
54796;DHT22;40693;43.884;20.340;2022-12-07T02:03:40;256.90;2252.80
54796;DHT22;40693;43.884;20.340;2022-12-07T02:06:06;256.90;2252.80
54796;DHT22;40693;43.884;20.340;2022-12-07T02:08:32;256.70;2252.80
54796;DHT22;40693;43.884;20.340;2022-12-07T02:10:58;256.80;2252.80
54796;DHT22;40693;43.884;20.340;2022-12-07T02:13:25;256.90;2252.80
54796;DHT22;40693;43.884;20.340;2022-12-07T02:16:05;256.90;2252.80
54796;DHT22;40693;43.884;20.340;2022-12-07T02:18:44;256.90;2252.80
54796;DHT22;40693;43.884;20.340;2022-12-07T02:31:33;256.90;2252.80
54796;DHT22;40693;43.884;20.340;2022-12-07T02:34:18;256.90;2252.80
54796;DHT22;40693;43.884;20.340;2022-12-07T02:36:46;256.90;2252.80
54796;DHT22;40693;43.884;20.340;2022-12-07T02:39:35;256.90;2252.80
54796;DHT22;40693;43.884;20.340;2022-12-07T02:42:03;281.60;2278.40
54796;DHT22;40693;43.884;20.340;2022-12-07T02:44:30;281.60;2278.40
54796;DHT22;40693;43.884;20.340;2022-12-07T02:46:59;281.60;2278.40
54796;DHT22;40693;43.884;20.340;2022-12-07T02:49:26;281.60;2278.40
54796;DHT22;40693;43.884;20.340;2022-12-07T02:51:53;281.60;2278.40
54796;DHT22;40693;43.884;20.340;2022-12-07T02:54:19;282.00;2278.40
54796;DHT22;40693;43.884;20.340;2022-12-07T02:57:04;281.60;2278.40
54796;DHT22;40693;43.884;20.340;2022-12-07T03:04:46;256.80;2252.80
54796;DHT22;40693;43.884;20.340;2022-12-07T03:07:24;256.90;2252.80
54796;DHT22;40693;43.884;20.340;2022-12-07T03:15:12;256.90;2252.80
54796;DHT22;40693;43.884;20.340;2022-12-07T03:17:40;256.80;2252.80
54796;DHT22;40693;43.884;20.340;2022-12-07T03:20:08;256.90;2252.80
54796;DHT22;40693;43.884;20.340;2022-12-07T03:22:34;256.80;2252.80
54796;DHT22;40693;43.884;20.340;2022-12-07T03:25:03;256.80;2252.80
54796;DHT22;40693;43.884;20.340;2022-12-07T03:27:40;256.80;2252.80
54796;DHT22;40693;43.884;20.340;2022-12-07T03:30:08;256.80;2252.80
54796;DHT22;40693;43.884;20.340;2022-12-07T03:32:37;256.80;2252.80
54796;DHT22;40693;43.884;20.340;2022-12-07T03:35:05;256.70;2252.80
54796;DHT22;40693;43.884;20.340;2022-12-07T03:37:43;256.70;2252.80
54796;DHT22;40693;43.884;20.340;2022-12-07T03:42:37;256.70;2252.80
54796;DHT22;40693;43.884;20.340;2022-12-07T03:45:03;256.70;2252.80
54796;DHT22;40693;43.884;20.340;2022-12-07T03:47:38;256.70;2252.80
54796;DHT22;40693;43.884;20.340;2022-12-07T03:50:20;256.70;2252.80
54796;DHT22;40693;43.884;20.340;2022-12-07T03:55:32;256.70;2252.80
54796;DHT22;40693;43.884;20.340;2022-12-07T03:58:02;256.70;2252.80
54796;DHT22;40693;43.884;20.340;2022-12-07T04:00:29;256.60;2252.80
54796;DHT22;40693;43.884;20.340;2022-12-07T04:02:56;256.50;2252.80
54796;DHT22;40693;43.884;20.340;2022-12-07T04:05:21;256.40;2252.80
54796;DHT22;40693;43.884;20.340;2022-12-07T04:07:47;256.50;2252.80
54796;DHT22;40693;43.884;20.340;2022-12-07T04:10:13;256.50;2252.80
54796;DHT22;40693;43.884;20.340;2022-12-07T04:12:39;256.50;2252.80
54796;DHT22;40693;43.884;20.340;2022-12-07T04:15:04;256.50;2252.80
54796;DHT22;40693;43.884;20.340;2022-12-07T04:17:30;256.60;2252.80
54796;DHT22;40693;43.884;20.340;2022-12-07T04:19:56;256.40;2252.80
54796;DHT22;40693;43.884;20.340;2022-12-07T04:22:21;256.40;2252.80
54796;DHT22;40693;43.884;20.340;2022-12-07T04:24:47;256.30;2252.80
54796;DHT22;40693;43.884;20.340;2022-12-07T04:27:13;256.30;2252.80
54796;DHT22;40693;43.884;20.340;2022-12-07T04:29:39;256.40;2252.80
54796;DHT22;40693;43.884;20.340;2022-12-07T04:32:04;256.30;2252.80
54796;DHT22;40693;43.884;20.340;2022-12-07T04:34:30;256.30;2252.80
54796;DHT22;40693;43.884;20.340;2022-12-07T04:36:56;256.30;2252.80
54796;DHT22;40693;43.884;20.340;2022-12-07T04:39:39;256.40;2252.80
54796;DHT22;40693;43.884;20.340;2022-12-07T04:42:05;256.40;2252.80
54796;DHT22;40693;43.884;20.340;2022-12-07T04:44:30;256.50;2252.80
54796;DHT22;40693;43.884;20.340;2022-12-07T04:46:56;256.50;2252.80
54796;DHT22;40693;43.884;20.340;2022-12-07T04:49:22;256.40;2252.80
54796;DHT22;40693;43.884;20.340;2022-12-07T04:51:48;256.40;2252.80
54796;DHT22;40693;43.884;20.340;2022-12-07T04:54:14;256.30;2252.80
54796;DHT22;40693;43.884;20.340;2022-12-07T04:56:41;256.30;2252.80
54796;DHT22;40693;43.884;20.340;2022-12-07T04:59:06;256.20;2252.80
54796;DHT22;40693;43.884;20.340;2022-12-07T05:01:32;256.20;2252.80
54796;DHT22;40693;43.884;20.340;2022-12-07T05:03:58;256.10;2252.80
54796;DHT22;40693;43.884;20.340;2022-12-07T05:06:23;256.10;2252.80
54796;DHT22;40693;43.884;20.340;2022-12-07T05:08:49;256.00;2252.80
54796;DHT22;40693;43.884;20.340;2022-12-07T05:11:15;256.20;2252.80
54796;DHT22;40693;43.884;20.340;2022-12-07T05:13:59;256.20;2252.80
54796;DHT22;40693;43.884;20.340;2022-12-07T05:16:25;256.30;2252.80
54796;DHT22;40693;43.884;20.340;2022-12-07T05:18:51;256.30;2252.80
54796;DHT22;40693;43.884;20.340;2022-12-07T05:21:18;256.30;2252.80
54796;DHT22;40693;43.884;20.340;2022-12-07T05:23:43;256.30;2252.80
54796;DHT22;40693;43.884;20.340;2022-12-07T05:26:09;256.40;2252.80
54796;DHT22;40693;43.884;20.340;2022-12-07T05:28:35;256.30;2252.80
54796;DHT22;40693;43.884;20.340;2022-12-07T05:31:01;256.50;2252.80
54796;DHT22;40693;43.884;20.340;2022-12-07T05:33:26;256.50;2252.80
54796;DHT22;40693;43.884;20.340;2022-12-07T05:35:52;256.50;2252.80
54796;DHT22;40693;43.884;20.340;2022-12-07T05:38:17;256.50;2252.80
54796;DHT22;40693;43.884;20.340;2022-12-07T05:40:43;256.50;2252.80
54796;DHT22;40693;43.884;20.340;2022-12-07T05:43:08;256.50;2252.80
54796;DHT22;40693;43.884;20.340;2022-12-07T05:45:34;256.60;2252.80
54796;DHT22;40693;43.884;20.340;2022-12-07T05:48:00;256.60;2252.80
54796;DHT22;40693;43.884;20.340;2022-12-07T05:50:25;256.60;2252.80
54796;DHT22;40693;43.884;20.340;2022-12-07T05:52:51;256.60;2252.80
54796;DHT22;40693;43.884;20.340;2022-12-07T05:55:16;256.60;2252.80
54796;DHT22;40693;43.884;20.340;2022-12-07T05:57:42;256.60;2252.80
54796;DHT22;40693;43.884;20.340;2022-12-07T06:00:30;256.60;2252.80
54796;DHT22;40693;43.884;20.340;2022-12-07T06:02:56;256.40;2252.80
54796;DHT22;40693;43.884;20.340;2022-12-07T06:05:22;256.50;2252.80
54796;DHT22;40693;43.884;20.340;2022-12-07T06:07:47;256.50;2252.80
54796;DHT22;40693;43.884;20.340;2022-12-07T06:10:13;256.50;2252.80
54796;DHT22;40693;43.884;20.340;2022-12-07T06:12:39;256.50;2252.80
54796;DHT22;40693;43.884;20.340;2022-12-07T06:15:07;256.50;2252.80
54796;DHT22;40693;43.884;20.340;2022-12-07T06:17:33;256.50;2252.80
54796;DHT22;40693;43.884;20.340;2022-12-07T06:19:59;256.50;2252.80
54796;DHT22;40693;43.884;20.340;2022-12-07T06:22:25;256.50;2252.80
54796;DHT22;40693;43.884;20.340;2022-12-07T06:24:50;256.50;2252.80
54796;DHT22;40693;43.884;20.340;2022-12-07T06:27:16;256.60;2252.80
54796;DHT22;40693;43.884;20.340;2022-12-07T06:29:42;256.60;2252.80
54796;DHT22;40693;43.884;20.340;2022-12-07T06:32:07;256.60;2252.80
54796;DHT22;40693;43.884;20.340;2022-12-07T06:34:33;256.60;2252.80
54796;DHT22;40693;43.884;20.340;2022-12-07T06:36:58;256.60;2252.80
54796;DHT22;40693;43.884;20.340;2022-12-07T06:39:24;256.50;2252.80
54796;DHT22;40693;43.884;20.340;2022-12-07T06:41:51;256.50;2252.80
54796;DHT22;40693;43.884;20.340;2022-12-07T06:44:17;256.50;2252.80
54796;DHT22;40693;43.884;20.340;2022-12-07T06:46:43;256.40;2252.80
54796;DHT22;40693;43.884;20.340;2022-12-07T06:49:08;256.50;2252.80
54796;DHT22;40693;43.884;20.340;2022-12-07T06:51:34;256.40;2252.80
54796;DHT22;40693;43.884;20.340;2022-12-07T06:54:02;256.50;2252.80
54796;DHT22;40693;43.884;20.340;2022-12-07T06:56:28;256.50;2252.80
54796;DHT22;40693;43.884;20.340;2022-12-07T06:58:54;256.50;2252.80
54796;DHT22;40693;43.884;20.340;2022-12-07T07:01:19;256.50;2252.80
54796;DHT22;40693;43.884;20.340;2022-12-07T07:03:46;256.50;2252.80
54796;DHT22;40693;43.884;20.340;2022-12-07T07:06:12;256.50;2252.80
54796;DHT22;40693;43.884;20.340;2022-12-07T07:08:38;256.50;2252.80
54796;DHT22;40693;43.884;20.340;2022-12-07T07:11:04;256.30;2252.80
54796;DHT22;40693;43.884;20.340;2022-12-07T07:13:30;256.70;2252.80
54796;DHT22;40693;43.884;20.340;2022-12-07T07:15:56;256.50;2252.80
54796;DHT22;40693;43.884;20.340;2022-12-07T07:18:22;256.40;2252.80
54796;DHT22;40693;43.884;20.340;2022-12-07T07:20:47;256.20;2252.80
54796;DHT22;40693;43.884;20.340;2022-12-07T07:23:13;256.30;2252.80
54796;DHT22;40693;43.884;20.340;2022-12-07T07:25:39;256.30;2252.80
54796;DHT22;40693;43.884;20.340;2022-12-07T07:28:04;256.30;2252.80
54796;DHT22;40693;43.884;20.340;2022-12-07T07:30:30;256.30;2252.80
54796;DHT22;40693;43.884;20.340;2022-12-07T07:32:59;256.30;2252.80
54796;DHT22;40693;43.884;20.340;2022-12-07T07:35:26;256.40;2252.80
54796;DHT22;40693;43.884;20.340;2022-12-07T07:37:52;256.90;2252.80
54796;DHT22;40693;43.884;20.340;2022-12-07T07:40:17;256.30;2252.80
54796;DHT22;40693;43.884;20.340;2022-12-07T07:42:43;256.30;2252.80
54796;DHT22;40693;43.884;20.340;2022-12-07T07:45:09;256.30;2252.80
54796;DHT22;40693;43.884;20.340;2022-12-07T07:47:34;256.30;2252.80
54796;DHT22;40693;43.884;20.340;2022-12-07T07:50:00;256.30;2252.80
54796;DHT22;40693;43.884;20.340;2022-12-07T07:52:25;256.30;2252.80
54796;DHT22;40693;43.884;20.340;2022-12-07T07:54:51;256.30;2252.80
54796;DHT22;40693;43.884;20.340;2022-12-07T07:57:17;256.30;2252.80
54796;DHT22;40693;43.884;20.340;2022-12-07T07:59:43;256.30;2252.80
54796;DHT22;40693;43.884;20.340;2022-12-07T08:02:16;256.40;2252.80
54796;DHT22;40693;43.884;20.340;2022-12-07T08:04:41;256.50;2252.80
54796;DHT22;40693;43.884;20.340;2022-12-07T08:07:07;256.60;2252.80
54796;DHT22;40693;43.884;20.340;2022-12-07T08:09:32;256.70;2252.80
54796;DHT22;40693;43.884;20.340;2022-12-07T08:11:58;256.60;2252.80
54796;DHT22;40693;43.884;20.340;2022-12-07T08:14:24;256.70;2252.80
54796;DHT22;40693;43.884;20.340;2022-12-07T08:16:49;256.70;2252.80
54796;DHT22;40693;43.884;20.340;2022-12-07T08:19:15;256.60;2252.80
54796;DHT22;40693;43.884;20.340;2022-12-07T08:21:41;256.60;2252.80
54796;DHT22;40693;43.884;20.340;2022-12-07T08:24:06;256.50;2252.80
54796;DHT22;40693;43.884;20.340;2022-12-07T08:26:32;256.50;2252.80
54796;DHT22;40693;43.884;20.340;2022-12-07T08:28:58;256.50;2252.80
54796;DHT22;40693;43.884;20.340;2022-12-07T08:31:24;256.50;2252.80
54796;DHT22;40693;43.884;20.340;2022-12-07T08:33:50;256.50;2252.80
54796;DHT22;40693;43.884;20.340;2022-12-07T08:36:16;256.50;2252.80
54796;DHT22;40693;43.884;20.340;2022-12-07T08:38:42;256.30;2252.80
54796;DHT22;40693;43.884;20.340;2022-12-07T08:41:07;256.40;2252.80
54796;DHT22;40693;43.884;20.340;2022-12-07T08:43:33;256.50;2252.80
54796;DHT22;40693;43.884;20.340;2022-12-07T08:48:24;256.70;2252.80
54796;DHT22;40693;43.884;20.340;2022-12-07T08:50:50;256.70;2252.80
54796;DHT22;40693;43.884;20.340;2022-12-07T08:53:16;256.70;2252.80
54796;DHT22;40693;43.884;20.340;2022-12-07T08:55:43;256.70;2252.80
54796;DHT22;40693;43.884;20.340;2022-12-07T08:58:09;256.70;2252.80
54796;DHT22;40693;43.884;20.340;2022-12-07T09:00:34;256.70;2252.80
54796;DHT22;40693;43.884;20.340;2022-12-07T09:03:00;256.70;2252.80
54796;DHT22;40693;43.884;20.340;2022-12-07T09:05:25;256.70;2252.80
54796;DHT22;40693;43.884;20.340;2022-12-07T09:07:51;256.70;2252.80
54796;DHT22;40693;43.884;20.340;2022-12-07T09:10:20;256.80;2252.80
54796;DHT22;40693;43.884;20.340;2022-12-07T09:12:45;256.90;2252.80
54796;DHT22;40693;43.884;20.340;2022-12-07T09:15:11;256.90;2252.80
54796;DHT22;40693;43.884;20.340;2022-12-07T09:17:37;256.90;2252.80
54796;DHT22;40693;43.884;20.340;2022-12-07T09:20:04;281.60;2278.40
54796;DHT22;40693;43.884;20.340;2022-12-07T09:22:30;281.60;2278.40
54796;DHT22;40693;43.884;20.340;2022-12-07T09:24:59;281.60;2278.40
54796;DHT22;40693;43.884;20.340;2022-12-07T09:27:25;281.70;2278.40
54796;DHT22;40693;43.884;20.340;2022-12-07T09:29:51;281.70;2278.40
54796;DHT22;40693;43.884;20.340;2022-12-07T09:32:16;281.70;2278.40
54796;DHT22;40693;43.884;20.340;2022-12-07T09:34:42;281.80;2278.40
54796;DHT22;40693;43.884;20.340;2022-12-07T09:37:08;281.80;2278.40
54796;DHT22;40693;43.884;20.340;2022-12-07T09:39:33;281.90;2278.40
54796;DHT22;40693;43.884;20.340;2022-12-07T09:41:59;281.90;2278.40
54796;DHT22;40693;43.884;20.340;2022-12-07T09:44:28;281.80;2278.40
54796;DHT22;40693;43.884;20.340;2022-12-07T09:46:54;281.80;2278.40
54796;DHT22;40693;43.884;20.340;2022-12-07T09:49:21;281.80;2278.40
54796;DHT22;40693;43.884;20.340;2022-12-07T09:54:27;281.70;2278.40
54796;DHT22;40693;43.884;20.340;2022-12-07T09:56:54;281.80;2278.40
54796;DHT22;40693;43.884;20.340;2022-12-07T09:59:19;281.80;2278.40
54796;DHT22;40693;43.884;20.340;2022-12-07T10:01:48;281.80;2278.40
54796;DHT22;40693;43.884;20.340;2022-12-07T10:04:15;281.90;2278.40
54796;DHT22;40693;43.884;20.340;2022-12-07T10:06:42;281.90;2278.40
54796;DHT22;40693;43.884;20.340;2022-12-07T10:09:11;281.90;2278.40
54796;DHT22;40693;43.884;20.340;2022-12-07T10:14:21;282.10;2278.40
54796;DHT22;40693;43.884;20.340;2022-12-07T10:16:47;282.10;2278.40
54796;DHT22;40693;43.884;20.340;2022-12-07T10:19:31;282.10;2278.40
54796;DHT22;40693;43.884;20.340;2022-12-07T10:24:30;282.10;2278.40
54796;DHT22;40693;43.884;20.340;2022-12-07T10:26:56;282.10;2278.40
54796;DHT22;40693;43.884;20.340;2022-12-07T10:29:32;282.10;2278.40
54796;DHT22;40693;43.884;20.340;2022-12-07T10:31:59;282.10;2278.40
54796;DHT22;40693;43.884;20.340;2022-12-07T10:34:29;282.00;2278.40
54796;DHT22;40693;43.884;20.340;2022-12-07T10:39:55;282.10;2278.40
54796;DHT22;40693;43.884;20.340;2022-12-07T10:44:47;282.00;2278.40
54796;DHT22;40693;43.884;20.340;2022-12-07T10:47:31;282.00;2278.40
54796;DHT22;40693;43.884;20.340;2022-12-07T10:52:34;282.00;2278.40
54796;DHT22;40693;43.884;20.340;2022-12-07T11:00:27;282.10;2278.40
54796;DHT22;40693;43.884;20.340;2022-12-07T11:13:14;282.00;2278.40
54796;DHT22;40693;43.884;20.340;2022-12-07T11:18:19;281.90;2278.40
54796;DHT22;40693;43.884;20.340;2022-12-07T11:23:39;282.00;2278.40
54796;DHT22;40693;43.884;20.340;2022-12-07T11:34:18;282.00;2278.40
54796;DHT22;40693;43.884;20.340;2022-12-07T11:36:48;282.10;2278.40
54796;DHT22;40693;43.884;20.340;2022-12-07T11:39:25;282.10;2278.40
54796;DHT22;40693;43.884;20.340;2022-12-07T11:41:52;282.10;2278.40
54796;DHT22;40693;43.884;20.340;2022-12-07T11:46:54;282.30;2278.40
54796;DHT22;40693;43.884;20.340;2022-12-07T11:49:35;282.20;2278.40
54796;DHT22;40693;43.884;20.340;2022-12-07T11:52:02;282.40;2278.40
54796;DHT22;40693;43.884;20.340;2022-12-07T11:54:34;282.30;2278.40
54796;DHT22;40693;43.884;20.340;2022-12-07T11:57:05;282.40;2278.40
54796;DHT22;40693;43.884;20.340;2022-12-07T11:59:40;282.40;2278.40
54796;DHT22;40693;43.884;20.340;2022-12-07T12:04:41;282.50;2278.40
54796;DHT22;40693;43.884;20.340;2022-12-07T12:07:11;282.50;2278.40
54796;DHT22;40693;43.884;20.340;2022-12-07T12:10:28;282.40;2278.40
54796;DHT22;40693;43.884;20.340;2022-12-07T12:12:50;282.40;2278.40
54796;DHT22;40693;43.884;20.340;2022-12-07T12:15:23;282.50;2278.40
54796;DHT22;40693;43.884;20.340;2022-12-07T12:18:13;282.50;2278.40
54796;DHT22;40693;43.884;20.340;2022-12-07T12:20:45;282.50;2278.40
54796;DHT22;40693;43.884;20.340;2022-12-07T12:25:47;307.20;2304.00
54796;DHT22;40693;43.884;20.340;2022-12-07T12:30:44;282.50;2278.40
54796;DHT22;40693;43.884;20.340;2022-12-07T12:33:44;282.50;2278.40
54796;DHT22;40693;43.884;20.340;2022-12-07T12:51:54;282.40;2278.40
54796;DHT22;40693;43.884;20.340;2022-12-07T12:54:24;282.40;2278.40
54796;DHT22;40693;43.884;20.340;2022-12-07T12:57:04;282.30;2278.40
54796;DHT22;40693;43.884;20.340;2022-12-07T12:59:31;282.30;2278.40
54796;DHT22;40693;43.884;20.340;2022-12-07T13:04:49;282.20;2278.40
54796;DHT22;40693;43.884;20.340;2022-12-07T13:10:00;282.10;2278.40
54796;DHT22;40693;43.884;20.340;2022-12-07T13:12:26;282.10;2278.40
54796;DHT22;40693;43.884;20.340;2022-12-07T13:14:56;282.20;2278.40
54796;DHT22;40693;43.884;20.340;2022-12-07T13:20:04;282.30;2278.40
54796;DHT22;40693;43.884;20.340;2022-12-07T13:24:59;282.20;2278.40
54796;DHT22;40693;43.884;20.340;2022-12-07T13:27:27;282.10;2278.40
54796;DHT22;40693;43.884;20.340;2022-12-07T13:29:53;282.10;2278.40
54796;DHT22;40693;43.884;20.340;2022-12-07T13:32:27;282.10;2278.40
54796;DHT22;40693;43.884;20.340;2022-12-07T13:34:53;282.00;2278.40
54796;DHT22;40693;43.884;20.340;2022-12-07T13:39:45;282.00;2278.40
54796;DHT22;40693;43.884;20.340;2022-12-07T13:44:52;281.90;2278.40
54796;DHT22;40693;43.884;20.340;2022-12-07T13:47:20;282.00;2278.40
54796;DHT22;40693;43.884;20.340;2022-12-07T13:49:49;281.90;2278.40
54796;DHT22;40693;43.884;20.340;2022-12-07T13:52:28;281.80;2278.40
54796;DHT22;40693;43.884;20.340;2022-12-07T13:55:05;281.90;2278.40
54796;DHT22;40693;43.884;20.340;2022-12-07T13:57:37;281.90;2278.40
54796;DHT22;40693;43.884;20.340;2022-12-07T14:00:03;282.00;2278.40
54796;DHT22;40693;43.884;20.340;2022-12-07T14:02:31;282.00;2278.40
54796;DHT22;40693;43.884;20.340;2022-12-07T14:05:24;281.90;2278.40
54796;DHT22;40693;43.884;20.340;2022-12-07T14:10:25;281.80;2278.40
54796;DHT22;40693;43.884;20.340;2022-12-07T14:12:51;281.80;2278.40
54796;DHT22;40693;43.884;20.340;2022-12-07T14:15:25;281.90;2278.40
54796;DHT22;40693;43.884;20.340;2022-12-07T14:17:53;281.90;2278.40
54796;DHT22;40693;43.884;20.340;2022-12-07T14:20:40;281.90;2278.40
54796;DHT22;40693;43.884;20.340;2022-12-07T14:23:21;281.90;2278.40
54796;DHT22;40693;43.884;20.340;2022-12-07T14:25:49;281.80;2278.40
54796;DHT22;40693;43.884;20.340;2022-12-07T14:31:11;281.70;2278.40
54796;DHT22;40693;43.884;20.340;2022-12-07T14:33:36;281.60;2278.40
54796;DHT22;40693;43.884;20.340;2022-12-07T14:36:02;281.70;2278.40
54796;DHT22;40693;43.884;20.340;2022-12-07T14:38:28;281.80;2278.40
54796;DHT22;40693;43.884;20.340;2022-12-07T14:40:53;281.60;2278.40
54796;DHT22;40693;43.884;20.340;2022-12-07T14:43:20;281.60;2278.40
54796;DHT22;40693;43.884;20.340;2022-12-07T14:45:45;281.60;2278.40
54796;DHT22;40693;43.884;20.340;2022-12-07T14:48:11;281.60;2278.40
54796;DHT22;40693;43.884;20.340;2022-12-07T14:50:38;281.60;2278.40
54796;DHT22;40693;43.884;20.340;2022-12-07T14:53:15;281.60;2278.40
54796;DHT22;40693;43.884;20.340;2022-12-07T14:55:41;281.70;2278.40
54796;DHT22;40693;43.884;20.340;2022-12-07T14:58:17;281.60;2278.40
54796;DHT22;40693;43.884;20.340;2022-12-07T15:00:42;281.70;2278.40
54796;DHT22;40693;43.884;20.340;2022-12-07T15:03:08;281.60;2278.40
54796;DHT22;40693;43.884;20.340;2022-12-07T15:05:34;281.60;2278.40
54796;DHT22;40693;43.884;20.340;2022-12-07T15:08:00;281.60;2278.40
54796;DHT22;40693;43.884;20.340;2022-12-07T15:10:26;256.80;2252.80
54796;DHT22;40693;43.884;20.340;2022-12-07T15:12:55;256.80;2252.80
54796;DHT22;40693;43.884;20.340;2022-12-07T15:15:41;256.90;2252.80
54796;DHT22;40693;43.884;20.340;2022-12-07T15:18:06;256.60;2252.80
54796;DHT22;40693;43.884;20.340;2022-12-07T15:20:32;256.60;2252.80
54796;DHT22;40693;43.884;20.340;2022-12-07T15:22:58;256.40;2252.80
54796;DHT22;40693;43.884;20.340;2022-12-07T15:25:23;256.40;2252.80
54796;DHT22;40693;43.884;20.340;2022-12-07T15:27:49;256.40;2252.80
54796;DHT22;40693;43.884;20.340;2022-12-07T15:30:15;256.40;2252.80
54796;DHT22;40693;43.884;20.340;2022-12-07T15:32:40;256.40;2252.80
54796;DHT22;40693;43.884;20.340;2022-12-07T15:35:06;256.30;2252.80
54796;DHT22;40693;43.884;20.340;2022-12-07T15:37:32;256.40;2252.80
54796;DHT22;40693;43.884;20.340;2022-12-07T15:39:58;256.40;2252.80
54796;DHT22;40693;43.884;20.340;2022-12-07T15:42:23;256.40;2252.80
54796;DHT22;40693;43.884;20.340;2022-12-07T15:44:49;256.40;2252.80
54796;DHT22;40693;43.884;20.340;2022-12-07T15:47:30;256.30;2252.80
54796;DHT22;40693;43.884;20.340;2022-12-07T15:49:56;256.30;2252.80
54796;DHT22;40693;43.884;20.340;2022-12-07T15:52:22;256.40;2252.80
54796;DHT22;40693;43.884;20.340;2022-12-07T15:54:47;256.30;2252.80
54796;DHT22;40693;43.884;20.340;2022-12-07T15:57:13;256.30;2252.80
54796;DHT22;40693;43.884;20.340;2022-12-07T15:59:39;256.30;2252.80
54796;DHT22;40693;43.884;20.340;2022-12-07T16:02:05;256.10;2252.80
54796;DHT22;40693;43.884;20.340;2022-12-07T16:04:30;256.10;2252.80
54796;DHT22;40693;43.884;20.340;2022-12-07T16:06:56;256.40;2252.80
54796;DHT22;40693;43.884;20.340;2022-12-07T16:09:22;256.10;2252.80
54796;DHT22;40693;43.884;20.340;2022-12-07T16:11:47;256.80;2252.80
54796;DHT22;40693;43.884;20.340;2022-12-07T16:14:15;256.70;2252.80
54796;DHT22;40693;43.884;20.340;2022-12-07T16:16:41;256.60;2252.80
54796;DHT22;40693;43.884;20.340;2022-12-07T16:19:07;256.40;2252.80
54796;DHT22;40693;43.884;20.340;2022-12-07T16:21:33;256.40;2252.80
54796;DHT22;40693;43.884;20.340;2022-12-07T16:23:59;256.40;2252.80
54796;DHT22;40693;43.884;20.340;2022-12-07T16:26:25;256.30;2252.80
54796;DHT22;40693;43.884;20.340;2022-12-07T16:28:51;256.30;2252.80
54796;DHT22;40693;43.884;20.340;2022-12-07T16:31:18;256.30;2252.80
54796;DHT22;40693;43.884;20.340;2022-12-07T16:33:44;256.30;2252.80
54796;DHT22;40693;43.884;20.340;2022-12-07T16:36:10;256.30;2252.80
54796;DHT22;40693;43.884;20.340;2022-12-07T16:38:36;256.30;2252.80
54796;DHT22;40693;43.884;20.340;2022-12-07T16:41:02;256.30;2252.80
54796;DHT22;40693;43.884;20.340;2022-12-07T16:43:28;256.30;2252.80